Edward F Knapp State Airport Barre, Montpelier US
ICAO: KMPV
IATA: MPV
Category: Medium
Scheduled Services: No

Elevation: 1166 ft
TransAlt. 18000 ft.

Airport Communications:
ASOS:132.675
BOSTON CNTR:135.7
BURLINGTON RDO:122.6
CTAF/UNICOM:122.8

KMPV Zoom In..

If you have problems with the map follow the link
https://www.worldairports.se/pages/airport.php?
ICAO=KMPV

Runways:

(A) RW 05 length 4022 ft width 100 ft
---- / hdg 48

(B) RW 17 length 5002 ft width 100 ft
ILS 108.70 / hdg 168

(C) RW 23 length 4022 ft width 100 ft
---- / hdg 228

(D) RW 35 length 5002 ft width 100 ft
---- / hdg 348

Location; KMPV
Day. 19 / Time. 16.51 Zulu
* Altimeter: 29.60
* Temperature: -04° c. -24.8°f.
* Wind from: 330° Speed 10 kn with Gusts up to 17 kn.
Dewpoint: -06° c.
Visibility: 4 Statute Miles.
Clouds: Scattered 500 ft.
Clouds: Broken 1600 ft.
Clouds: Overcast 3400 ft.
Conditions: Light Snow.Conditions: Mist.

KMPV 191651Z AUTO 33010G17KT 4SM -SN BR SCT005 BKN016 OVC034 M04/M06 A2960 RMK AO2 SNB32 SLP045 P0000 T10441061


Wind From 330°
Speed 10 kn.

 
 
jpsmedia worldairports.se 2020   terms of use